createdAt,value
2023-03-11T00:00:07.915Z,974.4
2023-03-11T00:01:08.784Z,974.4
2023-03-11T00:02:09.807Z,974.4
2023-03-11T00:03:10.739Z,974.4
2023-03-11T00:04:11.755Z,974.4
2023-03-11T00:05:12.823Z,974.4
2023-03-11T00:06:13.766Z,974.4
2023-03-11T00:07:14.729Z,974.4
2023-03-11T00:08:15.795Z,974.4
2023-03-11T00:09:16.715Z,974.3
2023-03-11T00:10:17.729Z,974.4
2023-03-11T00:11:18.745Z,974.4
2023-03-11T00:12:19.736Z,974.4
2023-03-11T00:13:20.758Z,974.3
2023-03-11T00:14:21.722Z,974.3
2023-03-11T00:15:22.747Z,974.3
2023-03-11T00:16:23.804Z,974.3
2023-03-11T00:17:24.754Z,974.3
2023-03-11T00:18:25.851Z,974.3
2023-03-11T00:19:26.749Z,974.3
2023-03-11T00:20:27.757Z,974.3
2023-03-11T00:21:28.753Z,974.3
2023-03-11T00:22:29.740Z,974.3
2023-03-11T00:23:30.782Z,974.3
2023-03-11T00:24:31.746Z,974.3
2023-03-11T00:25:32.769Z,974.3
2023-03-11T00:26:33.767Z,974.3
2023-03-11T00:27:34.748Z,974.3
2023-03-11T00:28:35.766Z,974.3
2023-03-11T00:29:36.725Z,974.3
2023-03-11T00:30:37.857Z,974.3
2023-03-11T00:31:38.765Z,974.3
2023-03-11T00:32:39.862Z,974.3
2023-03-11T00:33:40.801Z,974.3
2023-03-11T00:34:41.760Z,974.3
2023-03-11T00:35:42.774Z,974.4
2023-03-11T00:36:43.806Z,974.3
2023-03-11T00:37:44.779Z,974.4
2023-03-11T00:38:45.804Z,974.4
2023-03-11T00:39:46.732Z,974.4
2023-03-11T00:40:47.790Z,974.4
2023-03-11T00:41:48.776Z,974.4
2023-03-11T00:42:49.785Z,974.4
2023-03-11T00:43:50.771Z,974.4
2023-03-11T00:44:51.693Z,974.1
2023-03-11T00:45:52.769Z,974.3
2023-03-11T00:46:53.845Z,974.3
2023-03-11T00:47:54.813Z,974.3
2023-03-11T00:48:55.706Z,974.4
2023-03-11T00:49:56.771Z,974.4
2023-03-11T00:50:57.818Z,974.4
2023-03-11T00:51:58.783Z,974.4
2023-03-11T00:52:59.826Z,974.3
2023-03-11T00:54:00.796Z,974.4
2023-03-11T00:55:01.777Z,974.4
2023-03-11T00:56:02.786Z,974.4
2023-03-11T00:57:03.843Z,974.4
2023-03-11T00:58:04.790Z,974.4
2023-03-11T00:59:05.766Z,974.4
2023-03-11T01:00:06.791Z,974.5
2023-03-11T01:01:07.850Z,974.4
2023-03-11T01:02:08.803Z,974.5
2023-03-11T01:03:09.838Z,974.6
2023-03-11T01:04:10.817Z,974.6
2023-03-11T01:05:11.765Z,974.6
2023-03-11T01:06:12.692Z,974.6
2023-03-11T01:07:13.768Z,974.6
2023-03-11T01:08:14.785Z,974.6
2023-03-11T01:09:15.854Z,974.6
2023-03-11T01:10:16.871Z,974.6
2023-03-11T01:11:17.724Z,974.6
2023-03-11T01:12:18.767Z,974.6
2023-03-11T01:13:19.752Z,974.6
2023-03-11T01:14:20.791Z,974.7
2023-03-11T01:15:21.803Z,974.6
2023-03-11T01:16:22.835Z,974.6
2023-03-11T01:17:23.791Z,974.6
2023-03-11T01:18:24.792Z,974.6
2023-03-11T01:19:25.810Z,974.5
2023-03-11T01:20:26.724Z,974.7
2023-03-11T01:21:27.783Z,974.6
2023-03-11T01:22:28.833Z,974.6
2023-03-11T01:23:29.803Z,974.6
2023-03-11T01:24:30.772Z,974.6
2023-03-11T01:25:31.784Z,974.7
2023-03-11T01:26:32.844Z,974.7
2023-03-11T01:27:33.741Z,974.6
2023-03-11T01:28:34.831Z,974.7
2023-03-11T01:29:35.790Z,974.7
2023-03-11T01:30:36.805Z,974.7
2023-03-11T01:31:37.763Z,974.6
2023-03-11T01:32:38.858Z,974.7
2023-03-11T01:33:39.813Z,974.7
2023-03-11T01:34:40.817Z,974.7
2023-03-11T01:35:41.777Z,974.6
2023-03-11T01:36:42.850Z,974.6
2023-03-11T01:37:43.786Z,974.6
2023-03-11T01:38:44.839Z,974.7
2023-03-11T01:39:45.829Z,974.7
2023-03-11T01:40:46.785Z,974.7
2023-03-11T01:41:47.792Z,974.7
2023-03-11T01:42:48.820Z,974.7
2023-03-11T01:43:50.328Z,974.7
2023-03-11T01:44:51.864Z,974.7
2023-03-11T01:45:52.781Z,974.6
2023-03-11T01:46:54.028Z,974.7
2023-03-11T01:47:54.783Z,974.7
2023-03-11T01:48:55.799Z,974.6
2023-03-11T01:49:56.800Z,974.7
2023-03-11T01:50:57.816Z,974.7
2023-03-11T01:51:58.860Z,974.7
2023-03-11T01:52:59.800Z,974.7
2023-03-11T01:54:00.870Z,974.7
2023-03-11T01:55:01.868Z,974.7
2023-03-11T01:56:02.738Z,974.6
2023-03-11T01:57:03.952Z,974.6
2023-03-11T01:58:04.740Z,974.7
2023-03-11T01:59:05.728Z,974.6
2023-03-11T02:00:06.838Z,974.6
2023-03-11T02:01:07.790Z,974.6
2023-03-11T02:02:08.900Z,974.6
2023-03-11T02:03:10.023Z,974.6
2023-03-11T02:04:10.838Z,974.6
2023-03-11T02:05:11.798Z,974.6
2023-03-11T02:06:12.797Z,974.6
2023-03-11T02:07:13.800Z,974.6
2023-03-11T02:08:14.810Z,974.6
2023-03-11T02:09:15.797Z,974.6
2023-03-11T02:10:16.827Z,974.7
2023-03-11T02:11:17.773Z,974.7
2023-03-11T02:12:18.801Z,974.7
2023-03-11T02:13:19.801Z,974.6
2023-03-11T02:14:20.828Z,974.7
2023-03-11T02:15:21.768Z,974.7
2023-03-11T02:16:22.850Z,974.7
2023-03-11T02:17:23.803Z,974.7
2023-03-11T02:18:24.805Z,974.7
2023-03-11T02:19:25.793Z,974.7
2023-03-11T02:20:26.784Z,974.7
2023-03-11T02:21:27.799Z,974.7
2023-03-11T02:22:28.845Z,974.7
2023-03-11T02:23:29.807Z,974.8
2023-03-11T02:24:30.808Z,974.7
2023-03-11T02:25:31.741Z,974.7
2023-03-11T02:26:32.830Z,974.6
2023-03-11T02:27:33.812Z,974.7
2023-03-11T02:28:34.837Z,974.7
2023-03-11T02:29:35.835Z,974.7
2023-03-11T02:30:36.865Z,974.7
2023-03-11T02:31:37.947Z,974.7
2023-03-11T02:32:38.885Z,974.7
2023-03-11T02:33:39.848Z,974.7
2023-03-11T02:34:40.810Z,974.6
2023-03-11T02:35:41.853Z,974.6
2023-03-11T02:36:42.849Z,974.6
2023-03-11T02:37:43.782Z,974.6
2023-03-11T02:38:44.878Z,974.6
2023-03-11T02:39:45.868Z,974.6
2023-03-11T02:40:46.877Z,974.6
2023-03-11T02:41:47.869Z,974.6
2023-03-11T02:42:48.849Z,974.6
2023-03-11T02:43:49.808Z,974
2023-03-11T02:44:50.807Z,974.5
2023-03-11T02:45:51.817Z,974.6
2023-03-11T02:46:52.895Z,974.3
2023-03-11T02:47:53.812Z,974.5
2023-03-11T02:48:54.827Z,974.6
2023-03-11T02:49:55.833Z,974.6
2023-03-11T02:50:56.829Z,974.6
2023-03-11T02:51:57.865Z,974.6
2023-03-11T02:52:58.849Z,974.7
2023-03-11T02:53:59.824Z,974.6
2023-03-11T02:55:00.835Z,974.6
2023-03-11T02:56:01.839Z,974.6
2023-03-11T02:57:02.782Z,974.6
2023-03-11T02:58:03.964Z,974.4
2023-03-11T02:59:04.822Z,974.7
2023-03-11T03:00:05.805Z,974.9
2023-03-11T03:01:06.914Z,975
2023-03-11T03:02:07.852Z,975
2023-03-11T03:03:08.929Z,975.1
2023-03-11T03:04:09.853Z,975.3
2023-03-11T03:05:10.830Z,975.3
2023-03-11T03:06:11.882Z,975.4
2023-03-11T03:07:12.821Z,975.4
2023-03-11T03:08:13.826Z,975.4
2023-03-11T03:09:14.860Z,975.5
2023-03-11T03:10:15.806Z,975.4
2023-03-11T03:11:16.867Z,975.5
2023-03-11T03:12:17.841Z,975.6
2023-03-11T03:13:18.847Z,975.5
2023-03-11T03:14:19.802Z,975.6
2023-03-11T03:15:20.895Z,975.6
2023-03-11T03:16:21.945Z,975.7
2023-03-11T03:17:22.875Z,975.6
2023-03-11T03:18:23.824Z,975.8
2023-03-11T03:19:24.820Z,975.7
2023-03-11T03:20:25.825Z,975.7
2023-03-11T03:21:26.832Z,975.7
2023-03-11T03:22:27.839Z,975.7
2023-03-11T03:23:28.827Z,975.7
2023-03-11T03:24:29.800Z,975.7
2023-03-11T03:25:30.820Z,975.8
2023-03-11T03:26:31.889Z,975.8
2023-03-11T03:27:32.841Z,975.8
2023-03-11T03:28:33.841Z,975.8
2023-03-11T03:29:34.821Z,975.9
2023-03-11T03:30:35.843Z,975.9
2023-03-11T03:31:36.903Z,975.9
2023-03-11T03:32:37.919Z,975.9
2023-03-11T03:33:38.821Z,976
2023-03-11T03:34:39.823Z,976
2023-03-11T03:35:40.822Z,976.1
2023-03-11T03:36:41.861Z,976.1
2023-03-11T03:37:42.829Z,976
2023-03-11T03:38:43.932Z,976
2023-03-11T03:39:44.802Z,976
2023-03-11T03:40:45.796Z,976
2023-03-11T03:41:46.876Z,976.1
2023-03-11T03:42:47.829Z,976.1
2023-03-11T03:43:48.815Z,976.1
2023-03-11T03:44:49.803Z,976.1
2023-03-11T03:45:50.925Z,975.7
2023-03-11T03:46:51.832Z,976
2023-03-11T03:47:52.822Z,976.1
2023-03-11T03:48:53.863Z,976.1
2023-03-11T03:49:54.821Z,976.1
2023-03-11T03:50:55.841Z,976.1
2023-03-11T03:51:56.861Z,976.1
2023-03-11T03:52:57.799Z,976.1
2023-03-11T03:53:58.891Z,976.2
2023-03-11T03:54:59.842Z,976.2
2023-03-11T03:56:00.865Z,976.2
2023-03-11T03:57:01.877Z,976.2
2023-03-11T03:58:02.902Z,976.2
2023-03-11T03:59:04.172Z,976.2
2023-03-11T04:00:04.831Z,976.3
2023-03-11T04:01:05.886Z,976.2
2023-03-11T04:02:06.905Z,976.2
2023-03-11T04:03:07.924Z,976.2
2023-03-11T04:04:08.848Z,976.3
2023-03-11T04:05:09.866Z,976.3
2023-03-11T04:06:10.862Z,976.6
2023-03-11T04:07:11.901Z,976.5
2023-03-11T04:08:12.838Z,976.4
2023-03-11T04:09:13.868Z,976.5
2023-03-11T04:10:14.867Z,976.5
2023-03-11T04:11:15.876Z,976.6
2023-03-11T04:12:16.951Z,976.5
2023-03-11T04:13:17.850Z,976.6
2023-03-11T04:14:18.847Z,976.6
2023-03-11T04:15:19.931Z,976.6
2023-03-11T04:16:20.941Z,976.7
2023-03-11T04:17:21.870Z,976.6
2023-03-11T04:18:22.960Z,976.7
2023-03-11T04:19:23.871Z,976.7
2023-03-11T04:20:24.855Z,976.8
2023-03-11T04:21:25.831Z,976.7
2023-03-11T04:22:26.883Z,976.8
2023-03-11T04:23:27.897Z,976.7
2023-03-11T04:24:28.875Z,976.7
2023-03-11T04:25:29.887Z,976.8
2023-03-11T04:26:30.848Z,976.7
2023-03-11T04:27:31.934Z,976.8
2023-03-11T04:28:32.888Z,976.8
2023-03-11T04:29:33.905Z,976.8
2023-03-11T04:30:34.950Z,976.7
2023-03-11T04:31:35.868Z,976.9
2023-03-11T04:32:36.980Z,976.9
2023-03-11T04:33:37.871Z,976.9
2023-03-11T04:34:38.845Z,976.8
2023-03-11T04:35:39.904Z,976.9
2023-03-11T04:36:40.802Z,976.9
2023-03-11T04:37:41.922Z,976.9
2023-03-11T04:38:42.923Z,976.9
2023-03-11T04:39:43.895Z,976.8
2023-03-11T04:40:44.901Z,976.8
2023-03-11T04:41:45.912Z,976.8
2023-03-11T04:42:46.886Z,976.8
2023-03-11T04:43:47.861Z,976.9
2023-03-11T04:44:48.864Z,976.9
2023-03-11T04:45:49.880Z,976.9
2023-03-11T04:46:50.950Z,976.9
2023-03-11T04:47:51.961Z,976.9
2023-03-11T04:48:52.903Z,976.8
2023-03-11T04:49:53.879Z,976.8
2023-03-11T04:50:54.897Z,976.8
2023-03-11T04:51:55.899Z,976.9
2023-03-11T04:52:56.901Z,976.9
2023-03-11T04:53:57.928Z,976.8
2023-03-11T04:54:58.841Z,976.9
2023-03-11T04:55:59.900Z,976.9
2023-03-11T04:57:00.883Z,976.8
2023-03-11T04:58:01.945Z,976.8
2023-03-11T04:59:02.868Z,976.8
2023-03-11T05:00:04.386Z,976.9
2023-03-11T05:01:05.923Z,976.9
2023-03-11T05:02:06.793Z,976.9
2023-03-11T05:03:08.019Z,977
2023-03-11T05:04:09.011Z,976.9
2023-03-11T05:05:09.880Z,977
2023-03-11T05:06:10.839Z,976.9
2023-03-11T05:07:11.882Z,977
2023-03-11T05:08:12.880Z,977.1
2023-03-11T05:09:13.859Z,977
2023-03-11T05:10:14.990Z,977
2023-03-11T05:11:15.850Z,977
2023-03-11T05:12:16.846Z,977
2023-03-11T05:13:17.909Z,977
2023-03-11T05:14:18.899Z,977
2023-03-11T05:15:19.925Z,977
2023-03-11T05:16:20.922Z,977.1
2023-03-11T05:17:21.929Z,977
2023-03-11T05:18:22.824Z,977.2
2023-03-11T05:19:23.879Z,977.2
2023-03-11T05:20:24.944Z,977.1
2023-03-11T05:21:25.928Z,977.1
2023-03-11T05:22:26.879Z,977.1
2023-03-11T05:23:27.881Z,977.1
2023-03-11T05:24:28.881Z,977.2
2023-03-11T05:25:29.919Z,977.2
2023-03-11T05:26:30.883Z,977.2
2023-03-11T05:27:31.869Z,977.2
2023-03-11T05:28:32.984Z,977.3
2023-03-11T05:29:33.883Z,977.3
2023-03-11T05:30:34.891Z,977.3
2023-03-11T05:31:35.922Z,977.4
2023-03-11T05:32:36.902Z,977.4
2023-03-11T05:33:37.982Z,977.3
2023-03-11T05:34:38.919Z,977.2
2023-03-11T05:35:39.945Z,977.3
2023-03-11T05:36:40.947Z,977.3
2023-03-11T05:37:41.882Z,977.3
2023-03-11T05:38:42.925Z,977.2
2023-03-11T05:39:43.923Z,977.3
2023-03-11T05:40:44.932Z,977.4
2023-03-11T05:41:45.890Z,977.3
2023-03-11T05:42:46.906Z,977.4
2023-03-11T05:43:47.932Z,976.6
2023-03-11T05:44:48.892Z,977.3
2023-03-11T05:45:49.909Z,977.4
2023-03-11T05:46:50.979Z,977.5
2023-03-11T05:47:51.902Z,977.6
2023-03-11T05:48:52.886Z,977.6
2023-03-11T05:49:53.914Z,977.5
2023-03-11T05:50:54.905Z,977.5
2023-03-11T05:51:58.456Z,977.6
2023-03-11T05:52:56.906Z,977.6
2023-03-11T05:53:57.898Z,977.7
2023-03-11T05:54:58.985Z,977.7
2023-03-11T05:55:59.933Z,977.7
2023-03-11T05:57:00.893Z,977.7
2023-03-11T05:58:01.896Z,977.6
2023-03-11T05:59:02.937Z,977.7
2023-03-11T06:00:04.926Z,977.7
2023-03-11T06:01:05.871Z,977.7
2023-03-11T06:02:06.892Z,977.8
2023-03-11T06:03:07.964Z,977.8
2023-03-11T06:04:09.169Z,977.9
2023-03-11T06:05:12.286Z,977.9
2023-03-11T06:06:10.910Z,977.9
2023-03-11T06:07:11.927Z,977.9
2023-03-11T06:08:12.926Z,978
2023-03-11T06:09:13.946Z,977.9
2023-03-11T06:10:14.887Z,978
2023-03-11T06:11:15.901Z,978.1
2023-03-11T06:12:16.911Z,978
2023-03-11T06:13:17.863Z,978.1
2023-03-11T06:14:18.929Z,978.1
2023-03-11T06:15:19.941Z,978.1
2023-03-11T06:16:21.096Z,978.2
2023-03-11T06:17:21.941Z,978.2
2023-03-11T06:18:22.975Z,978.3
2023-03-11T06:19:23.910Z,978.2
2023-03-11T06:20:24.959Z,978.3
2023-03-11T06:21:25.909Z,978.3
2023-03-11T06:22:26.907Z,978.3
2023-03-11T06:23:27.924Z,978.3
2023-03-11T06:24:28.926Z,978.4
2023-03-11T06:25:29.884Z,978.4
2023-03-11T06:26:30.939Z,978.4
2023-03-11T06:27:31.911Z,978.4
2023-03-11T06:28:32.900Z,978.4
2023-03-11T06:29:33.926Z,978.4
2023-03-11T06:30:34.864Z,978.5
2023-03-11T06:31:35.938Z,978.5
2023-03-11T06:32:36.867Z,978.5
2023-03-11T06:33:37.961Z,978.6
2023-03-11T06:34:38.957Z,978.6
2023-03-11T06:35:39.953Z,978.6
2023-03-11T06:36:40.939Z,978.6
2023-03-11T06:37:41.927Z,978.7
2023-03-11T06:38:42.962Z,978.7
2023-03-11T06:39:43.923Z,978.7
2023-03-11T06:40:44.922Z,978.8
2023-03-11T06:41:45.920Z,978.8
2023-03-11T06:42:46.923Z,978.9
2023-03-11T06:43:47.920Z,978.8
2023-03-11T06:44:48.909Z,978.9
2023-03-11T06:45:49.957Z,979
2023-03-11T06:46:50.928Z,979
2023-03-11T06:47:52.014Z,979.1
2023-03-11T06:48:52.942Z,979
2023-03-11T06:49:53.941Z,978.2
2023-03-11T06:50:54.870Z,978.8
2023-03-11T06:51:55.882Z,979
2023-03-11T06:52:56.941Z,979.1
2023-03-11T06:53:57.942Z,979.2
2023-03-11T06:54:58.864Z,979.2
2023-03-11T06:55:59.942Z,979.2
2023-03-11T06:57:00.999Z,979.3
2023-03-11T06:58:01.985Z,979.3
2023-03-11T06:59:02.918Z,979.3
2023-03-11T07:00:04.551Z,979.5
2023-03-11T07:01:05.932Z,979.5
2023-03-11T07:02:06.883Z,979.5
2023-03-11T07:03:07.924Z,979.5
2023-03-11T07:04:09.084Z,979.5
2023-03-11T07:05:09.992Z,979.5
2023-03-11T07:06:10.914Z,979.5
2023-03-11T07:09:06.098Z,979.5
2023-03-11T07:10:06.975Z,979.7
2023-03-11T07:11:07.866Z,979.7
2023-03-11T07:12:08.933Z,979.8
2023-03-11T07:13:09.993Z,979.8
2023-03-11T07:14:10.899Z,979.9
2023-03-11T07:15:11.923Z,979.9
2023-03-11T07:16:13.060Z,980
2023-03-11T07:17:14.179Z,980
2023-03-11T07:18:14.954Z,979.9
2023-03-11T07:19:16.383Z,979.9
2023-03-11T07:20:16.927Z,980
2023-03-11T07:21:17.977Z,980.1
2023-03-11T07:22:18.899Z,980.1
2023-03-11T07:23:20.348Z,980.1
2023-03-11T07:24:21.087Z,980.1
2023-03-11T07:25:21.954Z,980.2
2023-03-11T07:26:22.955Z,980.3
2023-03-11T07:27:23.947Z,980.3
2023-03-11T07:28:24.934Z,980.2
2023-03-11T07:29:25.995Z,980.2
2023-03-11T07:30:26.929Z,980.3
2023-03-11T07:31:27.939Z,980.3
2023-03-11T07:32:29.004Z,980.3
2023-03-11T07:33:30.641Z,979.6
2023-03-11T07:34:31.034Z,980.2
2023-03-11T07:35:31.989Z,980.4
2023-03-11T07:36:32.911Z,980.4
2023-03-11T07:37:33.915Z,980.5
2023-03-11T07:38:34.976Z,980.5
2023-03-11T07:39:36.015Z,980.5
2023-03-11T07:40:36.921Z,980.6
2023-03-11T07:41:37.945Z,980.7
2023-03-11T07:42:38.933Z,980.6
2023-03-11T07:43:39.978Z,980.7
2023-03-11T07:44:40.995Z,980.7
2023-03-11T07:45:42.022Z,980.7
2023-03-11T07:46:42.963Z,980.8
2023-03-11T07:47:44.017Z,980.8
2023-03-11T07:48:45.015Z,980.9
2023-03-11T07:49:45.993Z,980.9
2023-03-11T07:50:46.992Z,981
2023-03-11T07:51:47.956Z,980.9
2023-03-11T07:52:49.013Z,980.9
2023-03-11T07:53:49.982Z,981.1
2023-03-11T07:54:50.953Z,981.1
2023-03-11T07:55:51.954Z,981.1
2023-03-11T07:56:52.970Z,981.2
2023-03-11T07:57:53.933Z,981.2
2023-03-11T07:58:54.932Z,981.3
2023-03-11T07:59:55.913Z,981.3
2023-03-11T08:00:57.003Z,981.3
2023-03-11T08:01:57.991Z,981.4
2023-03-11T08:02:58.950Z,981.4
2023-03-11T08:04:00.101Z,981.4
2023-03-11T08:05:00.975Z,981.4
2023-03-11T08:06:01.946Z,981.5
2023-03-11T08:07:02.976Z,981.5
2023-03-11T08:08:04.532Z,981.6
2023-03-11T08:09:06.014Z,981.6
2023-03-11T08:10:06.945Z,981.6
2023-03-11T08:11:07.964Z,981.7
2023-03-11T08:12:08.972Z,981.7
2023-03-11T08:13:09.993Z,981.7
2023-03-11T08:14:10.886Z,981.8
2023-03-11T08:15:11.996Z,981.8
2023-03-11T08:16:13.052Z,981.9
2023-03-11T08:17:13.994Z,981.9
2023-03-11T08:18:14.982Z,982
2023-03-11T08:19:15.954Z,981.9
2023-03-11T08:20:16.953Z,982
2023-03-11T08:21:17.955Z,982
2023-03-11T08:22:18.972Z,982.1
2023-03-11T08:23:19.975Z,982.1
2023-03-11T08:24:20.943Z,982.2
2023-03-11T08:25:22.033Z,982.2
2023-03-11T08:26:23.136Z,982.2
2023-03-11T08:27:23.974Z,981.6
2023-03-11T08:28:24.946Z,982.2
2023-03-11T08:29:25.961Z,982.4
2023-03-11T08:30:26.997Z,982.4
2023-03-11T08:31:28.105Z,982.4
2023-03-11T08:32:28.977Z,982.5
2023-03-11T08:33:29.958Z,982.6
2023-03-11T08:34:30.955Z,982.5
2023-03-11T08:35:32.289Z,982.6
2023-03-11T08:36:33.006Z,982.6
2023-03-11T08:37:33.973Z,982.5
2023-03-11T08:38:35.021Z,982.7
2023-03-11T08:39:35.983Z,982.6
2023-03-11T08:40:37.001Z,982.7
2023-03-11T08:41:37.987Z,982.8
2023-03-11T08:42:38.995Z,982.8
2023-03-11T08:43:40.069Z,982.9
2023-03-11T08:44:40.962Z,982.8
2023-03-11T08:45:42.037Z,982.9
2023-03-11T08:46:43.261Z,983.1
2023-03-11T08:47:43.976Z,983
2023-03-11T08:48:44.971Z,983.1
2023-03-11T08:49:45.974Z,983.1
2023-03-11T08:50:54.163Z,983.1
2023-03-11T08:51:48.958Z,983.1
2023-03-11T08:52:49.992Z,983.2
2023-03-11T08:53:50.970Z,983.2
2023-03-11T08:54:51.955Z,983.2
2023-03-11T08:55:53.449Z,983.3
2023-03-11T08:56:54.965Z,983.3
2023-03-11T08:57:55.944Z,983.3
2023-03-11T08:58:56.955Z,983.4
2023-03-11T08:59:57.972Z,983.4
2023-03-11T09:00:59.000Z,983.4
2023-03-11T09:02:00.066Z,983.5
2023-03-11T09:03:01.045Z,983.5
2023-03-11T09:04:01.983Z,983.6
2023-03-11T09:05:02.987Z,983.6
2023-03-11T09:06:04.096Z,983.6
2023-03-11T09:07:04.930Z,983.6
2023-03-11T09:08:06.055Z,983.7
2023-03-11T09:09:06.988Z,983.7
2023-03-11T09:10:08.018Z,983.8
2023-03-11T09:11:09.010Z,983.9
2023-03-11T09:12:09.978Z,983.9
2023-03-11T09:13:10.943Z,983.9
2023-03-11T09:14:11.992Z,984
2023-03-11T09:15:13.089Z,984
2023-03-11T09:16:14.016Z,983.7
2023-03-11T09:17:15.015Z,983.9
2023-03-11T09:18:15.974Z,984
2023-03-11T09:19:17.176Z,984
2023-03-11T09:20:17.975Z,984.1
2023-03-11T09:21:18.975Z,984.1
2023-03-11T09:22:20.060Z,984.1
2023-03-11T09:23:21.032Z,984.2
2023-03-11T09:24:21.952Z,984.4
2023-03-11T09:25:23.014Z,984.3
2023-03-11T09:26:24.042Z,984.3
2023-03-11T09:27:24.994Z,984.3
2023-03-11T09:28:25.972Z,984.4
2023-03-11T09:29:26.974Z,984.4
2023-03-11T09:30:28.178Z,984.4
2023-03-11T09:31:29.058Z,984.4
2023-03-11T09:32:30.139Z,984.5
2023-03-11T09:33:31.080Z,984.5
2023-03-11T09:34:32.014Z,984.5
2023-03-11T09:35:33.180Z,984.6
2023-03-11T09:36:33.971Z,984.6
2023-03-11T09:37:34.954Z,984.7
2023-03-11T09:38:36.028Z,984.7
2023-03-11T09:39:37.012Z,984.8
2023-03-11T09:40:38.014Z,984.8
2023-03-11T09:41:51.463Z,984.8
2023-03-11T09:42:40.085Z,984.8
2023-03-11T09:43:41.079Z,984.9
2023-03-11T09:44:41.971Z,984.9
2023-03-11T09:45:43.013Z,985
2023-03-11T09:46:44.089Z,985
2023-03-11T09:47:45.042Z,985
2023-03-11T09:48:46.035Z,985
2023-03-11T09:49:47.002Z,985.1
2023-03-11T09:50:48.015Z,985.2
2023-03-11T09:51:48.965Z,985.2
2023-03-11T09:52:50.159Z,985.2
2023-03-11T09:53:51.050Z,985.2
2023-03-11T09:54:51.993Z,985.2
2023-03-11T09:55:53.068Z,985.3
2023-03-11T09:56:54.014Z,985.3
2023-03-11T09:57:54.995Z,985.4
2023-03-11T09:58:55.973Z,985.5
2023-03-11T09:59:57.012Z,985.5
2023-03-11T10:00:58.031Z,985.5
2023-03-11T10:01:59.082Z,985.5
2023-03-11T10:03:00.049Z,985.5
2023-03-11T10:04:01.052Z,985.6
2023-03-11T10:06:51.031Z,985.6
2023-03-11T10:07:51.980Z,985.6
2023-03-11T10:08:53.024Z,985.6
2023-03-11T10:09:53.981Z,985.5
2023-03-11T10:10:55.016Z,985.6
2023-03-11T10:11:56.018Z,985.6
2023-03-11T10:12:56.993Z,985.7
2023-03-11T10:13:58.010Z,985.6
2023-03-11T10:14:59.043Z,985.6
2023-03-11T10:16:00.030Z,985.7
2023-03-11T10:17:01.002Z,985.6
2023-03-11T10:18:01.995Z,985.7
2023-03-11T10:19:03.369Z,985.7
2023-03-11T10:20:05.052Z,985.7
2023-03-11T10:21:05.948Z,985.8
2023-03-11T10:22:07.018Z,985.8
2023-03-11T10:23:08.019Z,985.8
2023-03-11T10:24:09.079Z,985.8
2023-03-11T10:25:10.030Z,985.8
2023-03-11T10:26:10.982Z,985.8
2023-03-11T10:27:11.990Z,985.8
2023-03-11T10:28:12.987Z,985.8
2023-03-11T10:29:14.071Z,986
2023-03-11T10:30:15.016Z,985.9
2023-03-11T10:31:16.103Z,986
2023-03-11T10:32:17.083Z,985.9
2023-03-11T10:33:18.203Z,986
2023-03-11T10:34:19.051Z,986
2023-03-11T10:35:19.975Z,986
2023-03-11T10:36:21.032Z,986
2023-03-11T10:37:22.040Z,986.1
2023-03-11T10:38:22.998Z,986.1
2023-03-11T10:39:24.096Z,986.1
2023-03-11T10:40:25.036Z,986.2
2023-03-11T10:41:26.039Z,986.2
2023-03-11T10:42:26.997Z,985.3
2023-03-11T10:43:28.011Z,986
2023-03-11T10:44:28.988Z,986.2
2023-03-11T10:45:30.172Z,986.2
2023-03-11T10:46:31.000Z,986.2
2023-03-11T10:47:32.013Z,986.3
2023-03-11T10:48:33.016Z,986.2
2023-03-11T10:49:34.033Z,986.3
2023-03-11T10:50:36.464Z,986.3
2023-03-11T10:51:36.081Z,986.4
2023-03-11T10:52:37.012Z,986.4
2023-03-11T10:53:38.031Z,986.4
2023-03-11T10:54:39.054Z,986.4
2023-03-11T10:55:40.031Z,986.5
2023-03-11T10:56:40.989Z,986.4
2023-03-11T10:57:42.292Z,986.5
2023-03-11T10:58:42.999Z,986.6
2023-03-11T10:59:44.002Z,985.7
2023-03-11T11:00:45.051Z,986.4
2023-03-11T11:01:46.132Z,986.5
2023-03-11T11:02:47.018Z,986.6
2023-03-11T11:03:48.053Z,986.6
2023-03-11T11:04:49.038Z,986.6
2023-03-11T11:05:49.997Z,986.6
2023-03-11T11:06:50.994Z,986.6
2023-03-11T11:07:51.994Z,986.7
2023-03-11T11:08:53.036Z,986.7
2023-03-11T11:09:53.986Z,986.7
2023-03-11T11:10:55.034Z,986.7
2023-03-11T11:11:55.967Z,986.7
2023-03-11T11:12:57.095Z,986.7
2023-03-11T11:13:58.075Z,986.8
2023-03-11T11:14:59.001Z,986.8
2023-03-11T11:16:00.086Z,986.8
2023-03-11T11:17:01.115Z,986.8
2023-03-11T11:18:02.059Z,986.8
2023-03-11T11:19:03.056Z,986.9
2023-03-11T11:20:04.019Z,986.9
2023-03-11T11:21:05.059Z,986.9
2023-03-11T11:22:06.074Z,986.9
2023-03-11T11:23:06.976Z,987
2023-03-11T11:24:08.019Z,987
2023-03-11T11:25:09.079Z,987
2023-03-11T11:26:10.037Z,986.9
2023-03-11T11:27:11.079Z,987
2023-03-11T11:28:12.022Z,987.1
2023-03-11T11:29:13.000Z,987
2023-03-11T11:30:13.984Z,987
2023-03-11T11:31:15.095Z,987
2023-03-11T11:32:16.063Z,987
2023-03-11T11:33:17.037Z,987
2023-03-11T11:34:18.037Z,987
2023-03-11T11:35:19.133Z,987.1
2023-03-11T11:36:20.061Z,987.2
2023-03-11T11:37:21.042Z,987.2
2023-03-11T11:38:22.049Z,987.1
2023-03-11T11:39:23.116Z,987.1
2023-03-11T11:40:24.096Z,987.2
2023-03-11T11:41:25.042Z,987.3
2023-03-11T11:42:25.983Z,987.2
2023-03-11T11:43:27.037Z,987.2
2023-03-11T11:44:28.161Z,987.2
2023-03-11T11:45:29.026Z,987.2
2023-03-11T11:46:30.120Z,987.2
2023-03-11T11:47:31.033Z,987.2
2023-03-11T11:48:31.981Z,987.3
2023-03-11T11:49:33.053Z,987.2
2023-03-11T11:50:34.105Z,987.2
2023-03-11T11:51:35.098Z,987.3
2023-03-11T11:52:36.046Z,987.2
2023-03-11T11:53:37.258Z,987.3
2023-03-11T11:54:39.091Z,987.3
2023-03-11T11:55:40.043Z,987.3
2023-03-11T11:56:41.095Z,987.3
2023-03-11T11:57:42.072Z,987.5
2023-03-11T11:58:43.035Z,987.4
2023-03-11T11:59:44.075Z,987.3
2023-03-11T12:00:45.032Z,987.4
2023-03-11T12:01:46.121Z,987.5
2023-03-11T12:02:47.071Z,987.5
2023-03-11T12:03:48.134Z,987.5
2023-03-11T12:04:49.055Z,987.6
2023-03-11T12:05:50.204Z,987.6
2023-03-11T12:06:51.000Z,987.6
2023-03-11T12:07:52.036Z,987.6
2023-03-11T12:08:52.994Z,987.6
2023-03-11T12:09:54.038Z,987.5
2023-03-11T12:10:55.113Z,987.6
2023-03-11T12:11:56.070Z,987.6
2023-03-11T12:12:57.098Z,987.6
2023-03-11T12:13:58.052Z,987.6
2023-03-11T12:14:59.091Z,987.8
2023-03-11T12:16:00.173Z,987.7
2023-03-11T12:17:03.357Z,987.7
2023-03-11T12:18:02.092Z,987.7
2023-03-11T12:19:03.051Z,987.6
2023-03-11T12:20:04.089Z,987.7
2023-03-11T12:21:05.079Z,987.7
2023-03-11T12:22:06.096Z,987.1
2023-03-11T12:23:07.104Z,987.5
2023-03-11T12:24:08.078Z,987.8
2023-03-11T12:25:09.073Z,987.8
2023-03-11T12:26:10.091Z,987.7
2023-03-11T12:27:11.183Z,987.8
2023-03-11T12:28:12.091Z,987.8
2023-03-11T12:29:15.707Z,987.8
2023-03-11T12:30:15.163Z,987.8
2023-03-11T12:31:16.142Z,987.8
2023-03-11T12:32:17.129Z,987.8
2023-03-11T12:33:18.078Z,987.9
2023-03-11T12:34:19.062Z,987.8
2023-03-11T12:35:20.375Z,987.9
2023-03-11T12:36:22.121Z,987.9
2023-03-11T12:37:23.073Z,988
2023-03-11T12:38:24.113Z,987.9
2023-03-11T12:39:25.081Z,988
2023-03-11T12:40:26.136Z,987.9
2023-03-11T12:41:27.093Z,987.9
2023-03-11T12:42:28.154Z,988
2023-03-11T12:43:29.094Z,988
2023-03-11T12:44:30.119Z,988.2
2023-03-11T12:45:31.119Z,988.1
2023-03-11T12:46:32.154Z,988.1
2023-03-11T12:47:35.270Z,988.2
2023-03-11T12:48:34.138Z,988.3
2023-03-11T12:49:35.143Z,988.4
2023-03-11T12:50:36.153Z,988.5
2023-03-11T12:51:37.117Z,988.6
2023-03-11T12:52:38.066Z,988.8
2023-03-11T12:53:39.188Z,988.7
2023-03-11T12:54:40.132Z,988.7
2023-03-11T12:55:41.095Z,988.7
2023-03-11T12:56:42.108Z,988.3
2023-03-11T12:57:43.113Z,988.7
2023-03-11T12:58:44.103Z,988.8
2023-03-11T12:59:45.102Z,988.8
2023-03-11T13:00:46.317Z,988.8
2023-03-11T13:01:47.111Z,988.9
2023-03-11T13:02:48.286Z,988.9
2023-03-11T13:03:49.136Z,988.9
2023-03-11T13:04:50.390Z,988.9
2023-03-11T13:05:51.140Z,988.9
2023-03-11T13:06:52.103Z,989
2023-03-11T13:07:53.093Z,989
2023-03-11T13:08:54.077Z,989.1
2023-03-11T13:09:55.180Z,989
2023-03-11T13:10:56.158Z,989.1
2023-03-11T13:11:57.078Z,989.1
2023-03-11T13:12:58.078Z,989.1
2023-03-11T13:13:59.168Z,989.1